Time;durP1;ratioP1;P1;durP2;ratioP2;P2;SDS_P1;SDS_P2;PMS_P1;PMS_P2;Temp;Humidity;BMP_temperature;BMP_pressure;BME280_temperature;BME280_humidity;BME280_pressure;Samples;Min_cycle;Max_cycle;Signal;HPM_P1;HPM_P2
2022/05/10 00:01:57;;;;;;;12.73;6.22;;;16.80;99.80;;;;;;4913274;28;20024;-43
2022/05/10 00:04:22;;;;;;;9.20;5.75;;;16.80;99.90;;;;;;4913345;28;20483;-46
2022/05/10 00:06:49;;;;;;;8.63;6.82;;;16.80;99.90;;;;;;4912993;28;20040;-45
2022/05/10 00:09:20;;;;;;;10.75;7.05;;;16.80;99.90;;;;;;4913072;29;20067;-47
2022/05/10 00:11:45;;;;;;;38.70;23.98;;;16.80;99.90;;;;;;4913379;29;20028;-45
2022/05/10 00:14:11;;;;;;;7.70;6.95;;;16.70;99.90;;;;;;4913143;28;20096;-44
2022/05/10 00:16:40;;;;;;;6.88;5.88;;;16.70;99.90;;;;;;4913328;29;20024;-45
2022/05/10 00:19:06;;;;;;;9.10;5.72;;;16.70;99.90;;;;;;4913164;29;20035;-46
2022/05/10 00:21:32;;;;;;;6.85;6.15;;;16.60;99.90;;;;;;4913098;29;20119;-46
2022/05/10 00:23:57;;;;;;;6.57;5.93;;;16.60;99.90;;;;;;4913239;28;20092;-45
2022/05/10 00:26:23;;;;;;;6.75;6.03;;;16.60;99.90;;;;;;4913075;28;20028;-44
2022/05/10 00:28:48;;;;;;;7.45;6.45;;;16.60;99.90;;;;;;4912819;28;20036;-47
2022/05/10 00:31:16;;;;;;;9.23;6.20;;;16.60;99.90;;;;;;4913349;28;20032;-44
2022/05/10 00:33:42;;;;;;;10.43;6.10;;;16.40;99.90;;;;;;4912704;29;20031;-46
2022/05/10 00:36:10;;;;;;;7.80;6.53;;;16.40;99.90;;;;;;4912688;28;20024;-45
2022/05/10 00:38:38;;;;;;;8.88;7.07;;;16.40;99.90;;;;;;4912437;29;20035;-43
2022/05/10 00:41:29;;;;;;;11.48;7.00;;;16.20;99.90;;;;;;4912690;29;20024;-47
2022/05/10 00:44:02;;;;;;;8.20;6.50;;;16.10;99.90;;;;;;4912639;29;20299;-50
2022/05/10 00:46:38;;;;;;;9.55;7.40;;;16.10;99.90;;;;;;4912612;29;20055;-44
2022/05/10 00:49:45;;;;;;;7.30;6.43;;;16.00;99.90;;;;;;4912497;29;20157;-47
2022/05/10 00:52:37;;;;;;;8.25;6.93;;;16.00;99.90;;;;;;4932017;29;20023;-44
2022/05/10 00:55:13;;;;;;;6.72;6.13;;;16.00;99.90;;;;;;4912653;29;20021;-44
2022/05/10 00:58:11;;;;;;;6.97;6.32;;;16.00;99.90;;;;;;4912322;29;20055;-48
2022/05/10 01:00:37;;;;;;;10.00;7.13;;;15.90;99.90;;;;;;4923126;29;20043;-44
2022/05/10 01:03:12;;;;;;;9.70;7.05;;;15.80;99.90;;;;;;4911276;28;20035;-44
2022/05/10 01:05:51;;;;;;;9.30;6.75;;;15.80;99.90;;;;;;4915334;29;20067;-47
2022/05/10 01:08:21;;;;;;;7.65;6.35;;;15.80;99.90;;;;;;4915820;28;20118;-45
2022/05/10 01:10:59;;;;;;;11.15;7.32;;;15.90;99.90;;;;;;4915730;29;20028;-48
2022/05/10 01:13:35;;;;;;;7.47;6.60;;;15.90;99.90;;;;;;4914550;28;20024;-45
2022/05/10 01:16:19;;;;;;;7.60;6.68;;;15.90;99.90;;;;;;4915782;29;20595;-47
2022/05/10 01:18:46;;;;;;;9.35;7.00;;;16.00;99.90;;;;;;4915382;29;20031;-48
2022/05/10 01:21:12;;;;;;;8.70;6.38;;;16.00;99.90;;;;;;4921020;23;20512;-46
2022/05/10 01:23:54;;;;;;;7.88;6.07;;;16.00;99.90;;;;;;4878154;29;20056;-47
2022/05/10 01:26:35;;;;;;;7.30;6.05;;;16.00;99.90;;;;;;4877343;29;20029;-48
2022/05/10 01:29:06;;;;;;;11.25;7.00;;;15.90;99.90;;;;;;4877742;29;20029;-47
2022/05/10 01:31:38;;;;;;;9.32;5.82;;;15.80;99.90;;;;;;4877949;29;20036;-47
2022/05/10 01:34:19;;;;;;;7.07;6.38;;;15.80;99.90;;;;;;4892458;29;20398;-48
2022/05/10 01:36:56;;;;;;;7.80;7.10;;;15.70;99.90;;;;;;4877813;29;20029;-54
2022/05/10 01:39:26;;;;;;;10.98;6.47;;;15.70;99.90;;;;;;4877834;29;20025;-51
2022/05/10 01:42:04;;;;;;;9.63;6.72;;;15.60;99.90;;;;;;4877657;29;20112;-48
2022/05/10 01:44:38;;;;;;;8.18;6.13;;;15.60;99.90;;;;;;4877843;29;20085;-48
2022/05/10 01:47:15;;;;;;;6.82;6.22;;;15.50;99.90;;;;;;4877473;29;20071;-46
2022/05/10 01:49:52;;;;;;;6.85;6.18;;;15.40;99.90;;;;;;4877931;29;20025;-46
2022/05/10 01:52:32;;;;;;;7.30;6.60;;;15.30;99.90;;;;;;4877576;29;20029;-47
2022/05/10 01:55:24;;;;;;;7.68;6.97;;;15.20;99.90;;;;;;4877580;29;20033;-48
2022/05/10 01:57:51;;;;;;;9.70;6.20;;;15.20;99.90;;;;;;4876023;29;20400;-47
2022/05/10 02:00:26;;;;;;;7.25;6.55;;;15.10;99.90;;;;;;4877383;29;20056;-53
2022/05/10 02:02:57;;;;;;;7.13;6.53;;;15.00;99.90;;;;;;4877463;29;20025;-45
2022/05/10 02:05:31;;;;;;;7.78;6.95;;;15.00;99.90;;;;;;4877537;29;20039;-47
2022/05/10 02:08:05;;;;;;;8.07;6.63;;;15.00;99.90;;;;;;4877100;29;20067;-51
2022/05/10 02:10:40;;;;;;;9.15;6.85;;;15.00;99.90;;;;;;4877262;29;20436;-46
2022/05/10 02:13:09;;;;;;;;;;;15.00;99.90;;;;;;4892036;29;20052;-45
2022/05/10 02:15:49;;;;;;;7.60;6.30;;;15.00;99.90;;;;;;4875480;28;19915;-47
2022/05/10 02:18:28;;;;;;;9.50;7.18;;;15.00;99.90;;;;;;4877201;29;20039;-43
2022/05/10 02:21:14;;;;;;;8.30;7.20;;;15.00;99.90;;;;;;4877018;29;20030;-46
2022/05/10 02:23:49;;;;;;;7.82;7.13;;;15.00;99.90;;;;;;4877225;29;20374;-52
2022/05/10 02:26:24;;;;;;;8.95;7.00;;;14.90;99.90;;;;;;4876667;29;20029;-47
2022/05/10 02:29:15;;;;;;;9.90;9.00;;;14.80;99.90;;;;;;4876756;29;20084;-45
2022/05/10 02:34:35;;;;;;;10.05;7.75;;;14.70;99.90;;;;;;4877124;29;20032;-44
2022/05/10 02:37:01;;;;;;;10.35;7.40;;;14.60;99.90;;;;;;4876576;29;20075;-43
2022/05/10 02:39:26;;;;;;;12.05;7.97;;;14.60;99.90;;;;;;4877005;29;20409;-52
2022/05/10 02:41:52;;;;;;;8.32;7.45;;;14.50;99.90;;;;;;4891045;29;20065;-48
2022/05/10 02:44:18;;;;;;;11.75;7.63;;;14.50;99.90;;;;;;4876850;29;20087;-46
2022/05/10 02:46:43;;;;;;;8.55;7.07;;;14.50;99.90;;;;;;4876964;29;20033;-41
2022/05/10 02:49:09;;;;;;;10.35;7.95;;;14.40;99.90;;;;;;4876624;29;20037;-48
2022/05/10 02:51:34;;;;;;;8.75;7.15;;;14.40;99.90;;;;;;4877045;29;20021;-45
2022/05/10 02:54:00;;;;;;;12.95;8.90;;;14.30;99.90;;;;;;4876766;29;20433;-48
2022/05/10 02:56:28;;;;;;;10.65;8.73;;;14.30;99.90;;;;;;4876639;29;20052;-49
2022/05/10 02:58:59;;;;;;;10.13;7.68;;;14.30;99.90;;;;;;4876358;29;20496;-43
2022/05/10 03:01:49;;;;;;;11.15;8.77;;;14.30;99.90;;;;;;4876693;29;20029;-46
2022/05/10 03:04:14;;;;;;;12.60;8.95;;;14.30;99.90;;;;;;4876695;29;20025;-45
2022/05/10 03:06:44;;;;;;;8.40;7.60;;;14.30;99.90;;;;;;4876739;29;20056;-48
2022/05/10 03:09:09;;;;;;;11.50;8.65;;;14.30;99.90;;;;;;4876442;29;20021;-49
2022/05/10 03:11:35;;;;;;;11.05;8.73;;;14.30;99.90;;;;;;4876348;29;20401;-44
2022/05/10 03:14:05;;;;;;;9.75;8.55;;;14.30;99.90;;;;;;4876422;29;20489;-47
2022/05/10 03:16:31;;;;;;;10.00;8.52;;;14.20;99.90;;;;;;4876294;29;20091;-50
2022/05/10 03:18:56;;;;;;;10.25;8.82;;;14.20;99.90;;;;;;4876045;29;20021;-47
2022/05/10 03:21:23;;;;;;;9.32;8.52;;;14.10;99.90;;;;;;4876185;29;20128;-48
2022/05/10 03:23:49;;;;;;;9.88;8.88;;;14.00;99.90;;;;;;4876187;29;20068;-46
2022/05/10 03:26:18;;;;;;;10.30;9.23;;;13.90;99.90;;;;;;4875551;29;20472;-49
2022/05/10 03:28:44;;;;;;;10.60;9.48;;;13.80;99.90;;;;;;4875453;29;20033;-46
2022/05/10 03:31:11;;;;;;;10.20;9.20;;;13.70;99.90;;;;;;4876030;29;20059;-48
2022/05/10 03:33:37;;;;;;;10.75;9.27;;;13.60;99.90;;;;;;4876375;29;20033;-49
2022/05/10 03:36:03;;;;;;;10.32;9.43;;;13.60;99.90;;;;;;4874761;29;20025;-47
2022/05/10 03:38:29;;;;;;;10.68;9.68;;;13.60;99.90;;;;;;4875847;29;20035;-46
2022/05/10 03:40:55;;;;;;;11.73;9.10;;;13.60;99.90;;;;;;4876025;29;20028;-47
2022/05/10 03:43:20;;;;;;;14.15;10.18;;;13.70;99.90;;;;;;4876222;29;20112;-48
2022/05/10 03:45:46;;;;;;;14.38;9.52;;;13.70;99.90;;;;;;4876065;29;20033;-45
2022/05/10 03:48:11;;;;;;;11.50;9.18;;;13.70;99.90;;;;;;4875812;29;20493;-50
2022/05/10 03:50:37;;;;;;;11.70;9.60;;;13.70;99.90;;;;;;4875851;29;20033;-47
2022/05/10 03:53:02;;;;;;;13.05;9.65;;;13.70;99.90;;;;;;4876104;29;20033;-47
2022/05/10 03:55:28;;;;;;;10.63;9.52;;;13.60;99.90;;;;;;4875696;29;20104;-50
2022/05/10 03:57:55;;;;;;;10.73;9.65;;;13.60;99.90;;;;;;4875407;29;20076;-46
2022/05/10 04:00:25;;;;;;;11.18;10.15;;;13.50;99.90;;;;;;4875703;29;20083;-50
2022/05/10 04:02:51;;;;;;;13.50;10.20;;;13.50;99.90;;;;;;4875792;29;20033;-49
2022/05/10 04:05:18;;;;;;;13.35;9.93;;;13.60;99.90;;;;;;4875662;29;20029;-48
2022/05/10 04:07:44;;;;;;;10.00;9.05;;;13.60;99.90;;;;;;4875284;29;20029;-42
2022/05/10 04:10:11;;;;;;;11.68;9.32;;;13.70;99.90;;;;;;4875591;29;20094;-45
2022/05/10 04:12:38;;;;;;;11.23;10.13;;;13.70;99.90;;;;;;4875681;29;20063;-46
2022/05/10 04:15:05;;;;;;;13.18;10.15;;;13.70;99.90;;;;;;4875545;29;20104;-46
2022/05/10 04:17:30;;;;;;;11.05;10.05;;;13.80;99.90;;;;;;4875486;29;20039;-43
2022/05/10 04:19:56;;;;;;;14.75;9.77;;;13.70;99.90;;;;;;4875556;29;20021;-45
2022/05/10 04:22:21;;;;;;;12.27;9.18;;;13.80;99.90;;;;;;4875422;29;20052;-47
2022/05/10 04:24:47;;;;;;;9.77;8.77;;;13.80;99.90;;;;;;4875643;29;20504;-43
2022/05/10 04:27:13;;;;;;;12.40;8.98;;;13.80;99.90;;;;;;4889611;29;20272;-46
2022/05/10 04:29:38;;;;;;;12.90;9.43;;;13.80;99.90;;;;;;4875553;29;20088;-45
2022/05/10 04:32:04;;;;;;;9.30;8.40;;;13.80;99.90;;;;;;4875267;29;20029;-45
2022/05/10 04:34:30;;;;;;;9.05;8.20;;;13.90;99.90;;;;;;4875646;29;20029;-45
2022/05/10 04:36:55;;;;;;;9.63;8.23;;;14.00;99.90;;;;;;4875071;29;20032;-45
2022/05/10 04:39:21;;;;;;;9.93;8.25;;;14.10;99.90;;;;;;4875218;29;20049;-41
2022/05/10 04:41:49;;;;;;;9.55;8.60;;;14.20;99.90;;;;;;4875284;29;20065;-43
2022/05/10 04:44:15;;;;;;;10.65;9.38;;;14.30;99.90;;;;;;4875459;29;20029;-46
2022/05/10 04:46:42;;;;;;;10.98;9.80;;;14.40;99.90;;;;;;4875655;29;20040;-46
2022/05/10 04:49:11;;;;;;;24.77;10.55;;;14.50;99.90;;;;;;4876118;29;20033;-46
2022/05/10 04:51:38;;;;;;;10.93;9.82;;;14.40;99.90;;;;;;4876927;29;20032;-45
2022/05/10 04:54:04;;;;;;;11.60;10.40;;;14.40;99.90;;;;;;4875798;29;20446;-46
2022/05/10 04:56:29;;;;;;;12.80;10.07;;;14.40;99.90;;;;;;4875482;29;20025;-46
2022/05/10 04:58:55;;;;;;;14.15;9.38;;;14.40;99.90;;;;;;4875107;29;20143;-46
2022/05/10 05:01:26;;;;;;;10.52;9.45;;;14.50;99.90;;;;;;4875595;29;20025;-48
2022/05/10 05:03:55;;;;;;;12.98;10.32;;;14.50;99.90;;;;;;4875364;29;20032;-44
2022/05/10 05:06:22;;;;;;;14.65;10.20;;;14.50;99.90;;;;;;4871306;29;20034;-48
2022/05/10 05:08:47;;;;;;;13.70;10.43;;;14.50;99.90;;;;;;4877905;29;20049;-47
2022/05/10 05:11:13;;;;;;;12.20;9.88;;;14.60;99.90;;;;;;4879124;29;20033;-47
2022/05/10 05:13:38;;;;;;;11.88;10.00;;;14.60;99.90;;;;;;4864779;29;20116;-47
2022/05/10 05:16:04;;;;;;;12.90;9.82;;;14.70;99.90;;;;;;4892314;28;20033;-48
2022/05/10 05:18:30;;;;;;;11.07;9.35;;;14.80;99.90;;;;;;4887864;29;20040;-50
2022/05/10 05:20:55;;;;;;;13.13;10.07;;;14.90;99.90;;;;;;4859243;29;20552;-51
2022/05/10 05:23:22;;;;;;;11.88;9.25;;;15.00;99.90;;;;;;4856357;29;20032;-45
2022/05/10 05:25:48;;;;;;;12.85;10.25;;;15.00;99.90;;;;;;4865795;29;20112;-45
2022/05/10 05:28:15;;;;;;;10.88;9.77;;;15.10;99.90;;;;;;4874472;29;20029;-49
2022/05/10 05:30:42;;;;;;;10.00;8.98;;;15.10;99.90;;;;;;4874777;29;20547;-50
2022/05/10 05:33:07;;;;;;;16.08;10.10;;;15.20;99.90;;;;;;4868599;29;20077;-45
2022/05/10 05:35:33;;;;;;;14.95;9.73;;;15.20;99.90;;;;;;4874506;29;20037;-43
2022/05/10 05:37:59;;;;;;;14.23;11.02;;;15.30;99.90;;;;;;4885932;29;20037;-45
2022/05/10 05:40:25;;;;;;;12.57;11.27;;;15.30;99.90;;;;;;4872554;29;20036;-49
2022/05/10 05:42:52;;;;;;;10.40;9.32;;;15.30;99.90;;;;;;4879347;29;20029;-44
2022/05/10 05:45:20;;;;;;;12.45;9.73;;;15.30;99.90;;;;;;4882547;29;20563;-48
2022/05/10 05:47:46;;;;;;;11.30;9.43;;;15.30;99.90;;;;;;4861375;29;20026;-42
2022/05/10 05:50:14;;;;;;;13.25;9.68;;;15.40;99.90;;;;;;4876175;29;20029;-45
2022/05/10 05:52:41;;;;;;;11.85;10.65;;;15.60;99.90;;;;;;4876662;29;20481;-46
2022/05/10 05:55:08;;;;;;;12.80;10.23;;;15.70;99.90;;;;;;4875832;29;20037;-47
2022/05/10 05:57:34;;;;;;;17.33;9.95;;;15.70;99.90;;;;;;4895938;29;20040;-47
2022/05/10 05:59:59;;;;;;;14.70;9.70;;;15.70;99.90;;;;;;4887711;29;20025;-46
2022/05/10 06:02:26;;;;;;;11.63;10.43;;;15.90;99.90;;;;;;4877391;29;20656;-45
2022/05/10 06:04:52;;;;;;;13.25;10.68;;;16.10;99.90;;;;;;4877572;29;20110;-50
2022/05/10 06:07:18;;;;;;;13.82;10.73;;;16.20;99.90;;;;;;4891479;29;20436;-49
2022/05/10 06:09:45;;;;;;;11.25;10.20;;;16.20;99.90;;;;;;4877459;29;20047;-45
2022/05/10 06:12:13;;;;;;;13.43;10.02;;;16.30;99.90;;;;;;4885002;29;20033;-45
2022/05/10 06:14:39;;;;;;;18.38;9.93;;;16.50;99.90;;;;;;4896204;29;20079;-47
2022/05/10 06:17:06;;;;;;;13.77;10.15;;;16.60;99.90;;;;;;4910050;29;20025;-50
2022/05/10 06:19:36;;;;;;;13.55;11.55;;;16.70;99.90;;;;;;4895931;28;20033;-44
2022/05/10 06:22:02;;;;;;;14.95;11.30;;;16.70;99.90;;;;;;4896013;29;20056;-47
2022/05/10 06:24:28;;;;;;;18.38;13.40;;;16.80;99.90;;;;;;4895602;28;20127;-49
2022/05/10 06:26:54;;;;;;;17.02;12.52;;;16.70;99.90;;;;;;4895411;29;20433;-47
2022/05/10 06:29:20;;;;;;;16.70;12.57;;;16.80;99.90;;;;;;4895778;29;20059;-47
2022/05/10 06:31:46;;;;;;;15.07;11.10;;;16.90;99.90;;;;;;4895695;29;20037;-47
2022/05/10 06:34:13;;;;;;;13.07;11.75;;;17.10;99.90;;;;;;4895561;29;20071;-51
2022/05/10 06:36:39;;;;;;;12.07;10.75;;;17.30;99.90;;;;;;4895720;29;20028;-48
2022/05/10 06:39:05;;;;;;;14.43;12.93;;;17.30;99.90;;;;;;4894712;29;20127;-47
2022/05/10 06:41:31;;;;;;;18.00;10.77;;;17.50;99.90;;;;;;4910344;29;20052;-46
2022/05/10 06:43:58;;;;;;;17.17;12.45;;;17.60;99.90;;;;;;4895767;29;20032;-49
2022/05/10 06:46:24;;;;;;;14.38;12.23;;;17.80;99.90;;;;;;4896182;29;20123;-46
2022/05/10 06:48:50;;;;;;;20.30;12.32;;;18.00;99.90;;;;;;4885568;29;20343;-43
2022/05/10 06:51:18;;;;;;;22.45;13.18;;;18.30;99.90;;;;;;4877231;29;20033;-45
2022/05/10 06:53:44;;;;;;;17.95;12.75;;;18.30;99.90;;;;;;4877051;29;20029;-46
2022/05/10 06:56:10;;;;;;;16.08;12.27;;;18.20;99.90;;;;;;4876399;29;20417;-48
2022/05/10 06:58:37;;;;;;;13.25;11.63;;;18.10;99.90;;;;;;4876006;29;20036;-51
2022/05/10 07:01:05;;;;;;;18.83;11.88;;;18.20;99.90;;;;;;4867597;29;20562;-48
2022/05/10 07:03:33;;;;;;;15.25;10.43;;;18.40;99.90;;;;;;4888355;29;20469;-52
2022/05/10 07:06:05;;;;;;;14.48;9.98;;;18.70;99.90;;;;;;4890708;29;20025;-44
2022/05/10 07:08:31;;;;;;;15.93;10.25;;;18.90;99.90;;;;;;4876321;29;20072;-47
2022/05/10 07:10:56;;;;;;;11.65;9.38;;;19.00;99.90;;;;;;4876612;29;20493;-47
2022/05/10 07:13:26;;;;;;;14.35;10.07;;;19.10;99.90;;;;;;4873142;29;20048;-48
2022/05/10 07:15:52;;;;;;;10.00;8.90;;;19.20;99.90;;;;;;4872161;29;20037;-45
2022/05/10 07:18:18;;;;;;;11.48;9.73;;;19.30;99.90;;;;;;4876111;29;20036;-50
2022/05/10 07:20:45;;;;;;;10.50;8.85;;;19.40;99.90;;;;;;4901647;23;20033;-43
2022/05/10 07:23:12;;;;;;;11.65;9.77;;;19.50;99.90;;;;;;4992718;28;20070;-44
2022/05/10 07:25:38;;;;;;;16.45;10.82;;;19.50;99.90;;;;;;4989085;28;20027;-46
2022/05/10 07:28:06;;;;;;;14.88;13.00;;;19.50;99.90;;;;;;5001418;28;20388;-43
2022/05/10 07:30:32;;;;;;;14.00;9.30;;;19.60;99.90;;;;;;4974980;28;20031;-48
2022/05/10 07:32:58;;;;;;;11.75;9.63;;;19.60;99.90;;;;;;4974667;28;20030;-45
2022/05/10 07:38:14;;;;;;;10.45;8.90;;;19.70;99.90;;;;;;4974190;28;20033;-45
2022/05/10 07:40:41;;;;;;;11.15;9.95;;;19.70;99.90;;;;;;4973893;28;20031;-45
2022/05/10 07:43:07;;;;;;;15.93;10.25;;;19.80;99.90;;;;;;4972857;28;20062;-44
2022/05/10 07:45:34;;;;;;;16.50;9.50;;;19.90;99.90;;;;;;4973926;28;20121;-51
2022/05/10 07:47:59;;;;;;;14.60;10.15;;;20.00;99.90;;;;;;4973648;28;20558;-47
2022/05/10 07:50:25;;;;;;;13.75;9.30;;;20.20;99.90;;;;;;4973689;28;20066;-45
2022/05/10 07:52:51;;;;;;;12.90;9.93;;;20.30;99.30;;;;;;4973654;28;20394;-44
2022/05/10 07:55:18;;;;;;;9.85;8.85;;;20.50;98.40;;;;;;4988754;28;20037;-47
2022/05/10 07:57:43;;;;;;;9.50;8.30;;;21.00;98.30;;;;;;4973366;28;20142;-46
2022/05/10 08:00:14;;;;;;;9.35;8.02;;;21.80;97.40;;;;;;4983495;28;20110;-48
2022/05/10 08:02:43;;;;;;;9.98;7.88;;;22.90;96.00;;;;;;4992252;28;20023;-49
2022/05/10 08:05:11;;;;;;;12.95;7.60;;;24.10;94.10;;;;;;4991807;28;20022;-48
2022/05/10 08:07:36;;;;;;;10.13;6.97;;;25.20;91.70;;;;;;4992359;28;20026;-46
2022/05/10 08:10:02;;;;;;;7.15;6.45;;;26.00;90.00;;;;;;4992683;28;20026;-46
2022/05/10 08:12:28;;;;;;;7.95;5.97;;;26.90;87.60;;;;;;4991733;28;20045;-49
2022/05/10 08:14:53;;;;;;;7.30;5.78;;;27.80;85.20;;;;;;4992612;28;20458;-48
2022/05/10 08:17:19;;;;;;;7.35;5.88;;;28.40;81.10;;;;;;4989702;28;20515;-47
2022/05/10 08:19:45;;;;;;;5.75;5.15;;;29.10;79.30;;;;;;4990907;28;20081;-47
2022/05/10 08:22:11;;;;;;;5.65;5.07;;;29.50;75.70;;;;;;4992057;28;20032;-48
2022/05/10 08:24:36;;;;;;;5.75;5.07;;;29.90;74.50;;;;;;4996445;28;20113;-46
2022/05/10 08:27:02;;;;;;;6.53;4.60;;;30.20;73.60;;;;;;5001893;28;20030;-47
2022/05/10 08:29:28;;;;;;;6.40;4.93;;;30.30;69.40;;;;;;5012037;28;20026;-46
2022/05/10 08:31:53;;;;;;;7.65;5.45;;;30.20;68.70;;;;;;4988414;28;20033;-49
2022/05/10 08:34:19;;;;;;;6.40;5.18;;;30.10;69.20;;;;;;5001453;28;20109;-48
2022/05/10 08:36:46;;;;;;;11.00;5.82;;;29.60;68.70;;;;;;4991632;28;20450;-44
2022/05/10 08:39:13;;;;;;;6.10;5.55;;;28.90;70.30;;;;;;4991433;28;20045;-45
2022/05/10 08:41:43;;;;;;;7.78;6.03;;;28.50;71.90;;;;;;4990169;28;20441;-47
2022/05/10 08:44:15;;;;;;;10.25;6.40;;;28.10;72.20;;;;;;4990933;28;20494;-45
2022/05/10 08:46:45;;;;;;;21.02;6.70;;;27.70;74.40;;;;;;4992064;28;20399;-46
2022/05/10 08:49:19;;;;;;;12.18;6.40;;;27.40;75.00;;;;;;4991880;28;20426;-48
2022/05/10 08:51:47;;;;;;;11.25;8.25;;;27.20;75.40;;;;;;4991879;28;20084;-47
2022/05/10 08:54:12;;;;;;;11.85;9.68;;;26.80;75.40;;;;;;4990450;28;20083;-45
2022/05/10 08:56:48;;;;;;;8.73;7.35;;;26.20;76.50;;;;;;4991589;28;20429;-48
2022/05/10 08:59:30;;;;;;;8.43;6.65;;;25.80;77.60;;;;;;4991922;28;20018;-47
2022/05/10 09:02:01;;;;;;;10.80;6.20;;;25.40;79.60;;;;;;4989645;28;20127;-46
2022/05/10 09:05:06;;;;;;;11.38;7.53;;;25.20;80.90;;;;;;4991986;28;20046;-47
2022/05/10 09:07:44;;;;;;;6.80;6.20;;;25.20;80.60;;;;;;4995428;28;20450;-48
2022/05/10 09:10:27;;;;;;;9.30;6.00;;;25.20;82.10;;;;;;5011490;28;20041;-53
2022/05/10 09:13:08;;;;;;;7.43;6.72;;;24.90;82.60;;;;;;4991855;28;20449;-51
2022/05/10 09:15:40;;;;;;;12.52;6.88;;;24.80;83.60;;;;;;4990421;28;20080;-46
2022/05/10 09:18:07;;;;;;;8.13;6.55;;;24.60;83.90;;;;;;4990893;28;20118;-47
2022/05/10 09:20:40;;;;;;;18.13;9.63;;;24.40;85.90;;;;;;5003089;28;20429;-47
2022/05/10 09:23:39;;;;;;;9.75;7.20;;;24.30;84.70;;;;;;5011971;28;20451;-44
2022/05/10 09:26:05;;;;;;;11.43;5.88;;;24.10;85.90;;;;;;4922702;28;20042;-45
2022/05/10 09:28:38;;;;;;;8.23;6.65;;;24.20;87.10;;;;;;4980895;28;20026;-47
2022/05/10 09:36:56;;;;;;;8.70;7.18;;;24.70;84.50;;;;;;4976711;28;20077;-45
2022/05/10 09:39:33;;;;;;;16.13;8.80;;;25.00;85.20;;;;;;4993475;28;20030;-45
2022/05/10 09:41:58;;;;;;;12.05;8.75;;;25.00;85.40;;;;;;4995535;28;20026;-45
2022/05/10 09:44:27;;;;;;;10.63;8.82;;;25.00;84.30;;;;;;4993592;28;20490;-45
2022/05/10 09:47:16;;;;;;;10.27;8.98;;;24.80;84.60;;;;;;4995052;28;20021;-42
2022/05/10 09:49:42;;;;;;;10.85;7.13;;;24.80;85.70;;;;;;4995058;28;20073;-45
2022/05/10 09:52:28;;;;;;;14.32;9.30;;;24.70;87.30;;;;;;4995186;28;20070;-45
2022/05/10 09:54:56;;;;;;;11.55;9.48;;;24.70;85.70;;;;;;4994913;28;20529;-45
2022/05/10 09:57:33;;;;;;;12.45;9.60;;;24.50;87.30;;;;;;4995010;28;20035;-47
2022/05/10 09:59:59;;;;;;;11.60;8.75;;;24.30;87.70;;;;;;4994208;28;20026;-44
2022/05/10 10:02:28;;;;;;;10.52;8.90;;;24.40;86.90;;;;;;4995166;28;20019;-47
2022/05/10 10:04:54;;;;;;;13.07;11.77;;;24.30;87.10;;;;;;4995195;28;20027;-45
2022/05/10 10:07:22;;;;;;;21.13;14.35;;;24.30;87.80;;;;;;4994999;28;20030;-46
2022/05/10 10:09:55;;;;;;;14.07;10.98;;;24.20;87.20;;;;;;4994996;28;20422;-45
2022/05/10 10:12:36;;;;;;;12.48;9.25;;;24.20;87.60;;;;;;4995184;28;20101;-45
2022/05/10 10:15:24;;;;;;;10.63;8.88;;;24.00;88.30;;;;;;4994822;28;20053;-45
2022/05/10 10:17:55;;;;;;;12.80;8.50;;;24.10;88.80;;;;;;4993520;28;20026;-45
2022/05/10 10:20:39;;;;;;;13.15;8.15;;;24.20;89.80;;;;;;4995152;28;20022;-47
2022/05/10 10:23:28;;;;;;;12.30;8.98;;;24.20;88.10;;;;;;4994852;28;20034;-45
2022/05/10 10:26:16;;;;;;;15.75;9.30;;;24.10;90.00;;;;;;4994969;28;20423;-48
2022/05/10 10:28:46;;;;;;;8.32;7.35;;;24.20;89.40;;;;;;4994982;28;20046;-48
2022/05/10 10:31:32;;;;;;;7.70;7.00;;;24.30;89.40;;;;;;4994590;28;20038;-45
2022/05/10 10:34:03;;;;;;;8.43;7.63;;;24.40;88.80;;;;;;4995015;28;20025;-44
2022/05/10 10:36:36;;;;;;;17.63;8.18;;;24.60;88.50;;;;;;5009323;28;20030;-48
2022/05/10 10:39:37;;;;;;;10.68;7.78;;;24.80;88.60;;;;;;4994994;28;20483;-45
2022/05/10 10:42:09;;;;;;;10.43;8.15;;;24.80;88.40;;;;;;4994756;28;20026;-44
2022/05/10 10:44:43;;;;;;;14.65;8.88;;;24.80;86.70;;;;;;4994558;28;20141;-45
2022/05/10 10:47:24;;;;;;;8.82;6.70;;;24.60;87.00;;;;;;4992964;28;20034;-45
2022/05/10 10:50:08;;;;;;;11.15;6.75;;;24.50;87.90;;;;;;4994112;28;20034;-47
2022/05/10 10:52:33;;;;;;;6.63;6.00;;;24.40;87.70;;;;;;4994391;28;20480;-50
2022/05/10 10:55:00;;;;;;;6.53;5.80;;;24.40;86.70;;;;;;4992971;28;20117;-45
2022/05/10 10:57:47;;;;;;;5.30;4.90;;;24.40;86.90;;;;;;4994403;28;20078;-45
2022/05/10 11:00:18;;;;;;;5.90;5.40;;;24.60;86.30;;;;;;4994383;28;20370;-46
2022/05/10 11:02:52;;;;;;;9.45;6.47;;;24.60;86.30;;;;;;4994424;28;20027;-45
2022/05/10 11:06:03;;;;;;;8.13;6.97;;;24.60;86.40;;;;;;4994038;28;20436;-45
2022/05/10 11:08:45;;;;;;;8.38;5.80;;;24.70;85.70;;;;;;4978400;28;20038;-46
2022/05/10 11:11:17;;;;;;;8.43;5.85;;;24.70;85.00;;;;;;4993603;28;20030;-45
2022/05/10 11:14:01;;;;;;;9.00;6.22;;;24.70;84.40;;;;;;4994031;28;20026;-45
2022/05/10 11:16:45;;;;;;;6.88;5.68;;;24.70;85.10;;;;;;4993720;28;20482;-45
2022/05/10 11:19:42;;;;;;;6.10;5.50;;;24.70;86.00;;;;;;4993320;28;20026;-45
2022/05/10 11:22:34;;;;;;;8.75;6.65;;;24.80;85.70;;;;;;4993777;28;20038;-45
2022/05/10 11:25:06;;;;;;;6.72;6.10;;;24.80;86.40;;;;;;4992135;28;20030;-44
2022/05/10 11:28:06;;;;;;;9.00;6.40;;;24.80;84.90;;;;;;4992837;28;20030;-45
2022/05/10 11:30:40;;;;;;;11.13;6.18;;;24.90;84.90;;;;;;4993253;28;20034;-45
2022/05/10 11:33:31;;;;;;;7.82;6.30;;;24.90;85.80;;;;;;4992097;28;20117;-46
2022/05/10 11:36:02;;;;;;;6.07;5.47;;;24.80;84.30;;;;;;4993543;28;20410;-44
2022/05/10 11:38:40;;;;;;;5.32;4.82;;;24.80;83.80;;;;;;4993025;28;20429;-46
2022/05/10 11:41:08;;;;;;;8.00;5.30;;;24.80;83.80;;;;;;4992886;28;20026;-48
2022/05/10 11:44:05;;;;;;;6.28;5.75;;;24.90;85.10;;;;;;4993189;28;20026;-46
2022/05/10 11:46:49;;;;;;;7.28;5.15;;;24.90;83.80;;;;;;4993189;28;20512;-45
2022/05/10 11:49:48;;;;;;;6.07;5.55;;;24.90;83.20;;;;;;4992504;28;20034;-45
2022/05/10 11:52:28;;;;;;;10.40;5.25;;;24.90;83.70;;;;;;4991808;28;20026;-48
2022/05/10 11:55:18;;;;;;;6.15;5.47;;;24.90;84.80;;;;;;5007787;28;20022;-47
2022/05/10 11:57:44;;;;;;;8.98;5.43;;;25.00;83.20;;;;;;4992700;28;20427;-44
2022/05/10 12:00:31;;;;;;;5.43;4.93;;;25.00;82.90;;;;;;4992695;28;20037;-45
2022/05/10 12:03:01;;;;;;;7.15;5.40;;;25.00;82.90;;;;;;4992997;28;20038;-46
2022/05/10 12:05:29;;;;;;;10.05;5.88;;;25.00;83.80;;;;;;4990711;28;20514;-45
2022/05/10 12:08:02;;;;;;;5.72;4.88;;;25.00;83.50;;;;;;4991980;28;20066;-47
2022/05/10 12:10:40;;;;;;;7.63;4.88;;;25.00;83.40;;;;;;4988066;28;20031;-47
2022/05/10 12:13:08;;;;;;;5.57;5.03;;;24.90;83.50;;;;;;4983313;28;20058;-46
2022/05/10 12:21:50;;;;;;;6.13;5.40;;;25.00;83.60;;;;;;4992169;28;20057;-46
2022/05/10 12:24:25;;;;;;;5.78;5.18;;;25.00;84.10;;;;;;4992644;28;20367;-45
2022/05/10 12:26:54;;;;;;;;;;;25.10;84.80;;;;;;4992467;28;20418;-45
2022/05/10 12:29:37;;;;;;;5.80;4.80;;;25.10;84.90;;;;;;4992465;28;19905;-48
2022/05/10 12:32:21;;;;;;;9.00;5.57;;;25.20;84.90;;;;;;4990602;28;20109;-47
2022/05/10 12:34:49;;;;;;;11.98;8.00;;;25.20;82.10;;;;;;4991431;28;20113;-45
2022/05/10 12:37:30;;;;;;;4.90;4.50;;;25.30;82.80;;;;;;4992008;28;20069;-48
2022/05/10 12:40:08;;;;;;;5.90;5.40;;;25.30;81.80;;;;;;4992299;28;20031;-48
2022/05/10 12:42:53;;;;;;;7.40;5.10;;;25.40;81.90;;;;;;4992160;28;20097;-47
2022/05/10 12:45:20;;;;;;;;;;;25.30;81.30;;;;;;5007714;28;20125;-47
2022/05/10 12:48:16;;;;;;;6.53;4.45;;;25.20;81.60;;;;;;4991483;28;19910;-42
2022/05/10 12:50:56;;;;;;;5.18;4.70;;;25.20;81.50;;;;;;4992109;28;20070;-45
2022/05/10 12:53:47;;;;;;;5.53;4.85;;;25.10;82.90;;;;;;5007643;28;20401;-44
2022/05/10 12:56:16;;;;;;;5.63;5.18;;;25.20;82.00;;;;;;4992139;28;20034;-43
2022/05/10 12:58:47;;;;;;;5.28;4.70;;;25.30;81.90;;;;;;4991842;28;20034;-44
2022/05/10 13:01:16;;;;;;;7.65;4.60;;;25.30;80.20;;;;;;4995855;28;20069;-45
2022/05/10 13:03:51;;;;;;;4.70;4.20;;;25.40;80.40;;;;;;4995980;28;20565;-46
2022/05/10 13:06:21;;;;;;;4.70;4.30;;;25.50;81.30;;;;;;4996021;28;20040;-46
2022/05/10 13:08:53;;;;;;;6.82;4.70;;;25.50;81.60;;;;;;4995962;28;20084;-43
2022/05/10 13:11:21;;;;;;;8.50;4.63;;;25.50;80.10;;;;;;5011227;28;20512;-42
2022/05/10 13:13:48;;;;;;;8.63;5.70;;;25.50;81.40;;;;;;4996296;28;20034;-43
2022/05/10 13:16:17;;;;;;;6.18;5.20;;;25.50;80.00;;;;;;4996400;28;20057;-43
2022/05/10 13:18:46;;;;;;;6.90;4.80;;;25.40;80.10;;;;;;5010226;28;20046;-42
2022/05/10 13:21:12;;;;;;;6.55;5.30;;;25.30;81.60;;;;;;5007130;28;20057;-45